Terminal Aerodrome Forecast
Issued by NWS

Home | Current Version | Previous Version | Text Only | Print | Product List | Glossary On
Versions: 1 2 3 4 5 6 7 8 9 10 11 12 13 14 15
000
FTUS43 KICT 272338
TAFHUT
TAF
KHUT 272338Z 2800/2824 13006KT 5SM -SN SCT017 BKN025 OVC050
     FM280300 12010KT P6SM OVC015
     FM280900 14010KT 5SM -SN OVC020
     FM281200 16014KT 1/2SM SN FG OVC007=

USA.gov is the U.S. government's official web portal to all federal, state and local government web resources and services.